Time;durP1;ratioP1;P1;durP2;ratioP2;P2;SDS_P1;SDS_P2;PMS_P1;PMS_P2;Temp;Humidity;BMP_temperature;BMP_pressure;BME280_temperature;BME280_humidity;BME280_pressure;Samples;Min_cycle;Max_cycle;Signal;HPM_P1;HPM_P2
2023/04/26 00:00:44;;;;;;;12.20;5.95;;;;;;;0.51;83.94;101681.19;5030577;28;20043;-77
2023/04/26 00:03:11;;;;;;;11.00;4.93;;;;;;;0.37;84.10;101683.00;5030131;28;20029;-75
2023/04/26 00:05:37;;;;;;;13.13;5.60;;;;;;;0.35;83.77;101692.91;5015871;28;20041;-75
2023/04/26 00:08:03;;;;;;;15.63;6.93;;;;;;;0.35;83.79;101689.38;5015777;28;20476;-76
2023/04/26 00:10:28;;;;;;;14.10;5.70;;;;;;;0.30;84.29;101687.06;5035686;28;20033;-75
2023/04/26 00:12:54;;;;;;;16.27;7.00;;;;;;;0.23;83.94;101685.81;5023735;28;20357;-76
2023/04/26 00:15:19;;;;;;;16.10;7.30;;;;;;;0.17;84.19;101684.44;5025145;28;20042;-76
2023/04/26 00:17:45;;;;;;;17.27;7.17;;;;;;;0.09;84.15;101684.97;5039501;28;20622;-76
2023/04/26 00:20:11;;;;;;;16.13;6.75;;;;;;;0.11;84.32;101679.56;5042403;28;20326;-76
2023/04/26 00:22:37;;;;;;;15.95;6.47;;;;;;;0.27;84.07;101688.13;5014337;28;20404;-76
2023/04/26 00:25:03;;;;;;;15.18;6.68;;;;;;;0.36;84.31;101689.25;5016608;28;20025;-76
2023/04/26 00:27:28;;;;;;;14.90;6.82;;;;;;;0.38;84.27;101683.88;5029000;28;20029;-76
2023/04/26 00:29:53;;;;;;;14.10;6.13;;;;;;;0.34;84.29;101677.97;5018115;28;20030;-76
2023/04/26 00:32:19;;;;;;;17.73;8.33;;;;;;;0.43;84.03;101682.59;5014163;28;20030;-76
2023/04/26 00:34:44;;;;;;;18.73;7.00;;;;;;;0.47;83.72;101674.44;5032611;28;20021;-76
2023/04/26 00:37:10;;;;;;;16.57;6.13;;;;;;;0.53;83.61;101677.47;5028295;28;20370;-76
2023/04/26 00:39:35;;;;;;;11.90;5.63;;;;;;;0.42;83.44;101675.59;5048064;28;20029;-76
2023/04/26 00:42:00;;;;;;;12.70;5.60;;;;;;;0.36;83.43;101678.66;5032978;28;20037;-76
2023/04/26 00:44:26;;;;;;;15.93;5.90;;;;;;;0.28;84.04;101673.09;5014112;28;20366;-76
2023/04/26 00:46:52;;;;;;;13.80;5.27;;;;;;;0.42;83.54;101670.28;5021498;28;20040;-76
2023/04/26 00:49:18;;;;;;;10.95;5.18;;;;;;;0.58;83.04;101669.19;5017370;28;20081;-76
2023/04/26 00:51:43;;;;;;;;;;;;;;;0.60;82.84;101662.84;5026130;28;20033;-77
2023/04/26 00:54:09;;;;;;;9.95;5.18;;;;;;;0.55;82.87;101666.75;5047696;28;19913;-76
2023/04/26 00:56:35;;;;;;;10.13;4.72;;;;;;;0.65;83.16;101664.28;5023257;28;21753;-76
2023/04/26 00:59:04;;;;;;;13.02;5.03;;;;;;;0.64;82.84;101654.63;5032239;28;20030;-77
2023/04/26 01:01:30;;;;;;;11.35;5.30;;;;;;;0.47;82.71;101662.00;5026475;28;20552;-76
2023/04/26 01:03:56;;;;;;;17.43;5.53;;;;;;;0.42;83.56;101665.00;5018285;28;20099;-76
2023/04/26 01:06:22;;;;;;;9.25;4.93;;;;;;;0.38;83.50;101671.47;5029545;28;20030;-77
2023/04/26 01:08:50;;;;;;;13.43;5.45;;;;;;;0.43;83.26;101661.41;5013709;28;20026;-76
2023/04/26 01:11:18;;;;;;;13.85;5.25;;;;;;;0.42;83.48;101661.50;5027698;28;20053;-77
2023/04/26 01:13:44;;;;;;;18.02;5.47;;;;;;;0.29;83.57;101665.03;5028003;28;20026;-77
2023/04/26 01:16:09;;;;;;;11.90;5.13;;;;;;;0.22;84.06;101662.91;5028289;28;20034;-75
2023/04/26 01:18:34;;;;;;;12.70;5.30;;;;;;;0.19;83.88;101663.13;5017572;28;20072;-76
2023/04/26 01:21:00;;;;;;;16.45;5.55;;;;;;;0.20;84.09;101675.41;5028479;28;20041;-76
2023/04/26 01:23:25;;;;;;;15.35;5.63;;;;;;;0.28;84.22;101681.03;5006810;28;20041;-75
2023/04/26 01:25:52;;;;;;;13.03;5.90;;;;;;;0.25;83.99;101679.47;5034079;28;20053;-76
2023/04/26 01:28:17;;;;;;;12.57;5.40;;;;;;;0.18;83.90;101677.34;5003009;28;20396;-76
2023/04/26 01:30:43;;;;;;;8.97;5.43;;;;;;;0.14;84.02;101687.28;4988065;28;20038;-76
2023/04/26 01:33:08;;;;;;;12.70;5.57;;;;;;;0.10;84.49;101681.38;4992574;28;20030;-76
2023/04/26 01:35:33;;;;;;;10.30;5.47;;;;;;;0.06;84.10;101684.34;4977252;28;20446;-76
2023/04/26 01:37:59;;;;;;;16.13;6.60;;;;;;;-0.08;84.49;101686.16;4999665;28;20076;-76
2023/04/26 01:40:25;;;;;;;16.52;6.68;;;;;;;-0.20;84.96;101687.88;4990414;28;20505;-76
2023/04/26 01:42:53;;;;;;;12.67;5.33;;;;;;;-0.36;85.86;101682.75;4984092;28;20029;-75
2023/04/26 01:45:18;;;;;;;14.35;5.90;;;;;;;-0.43;85.61;101680.66;4992750;28;20121;-76
2023/04/26 01:47:43;;;;;;;18.13;6.70;;;;;;;-0.51;85.80;101676.72;4992909;28;20034;-76
2023/04/26 01:50:09;;;;;;;17.13;7.30;;;;;;;-0.44;86.29;101676.31;4995825;28;20297;-76
2023/04/26 01:52:38;;;;;;;14.30;6.88;;;;;;;-0.44;86.07;101676.31;4987079;28;20554;-76
2023/04/26 01:55:03;;;;;;;16.15;7.93;;;;;;;-0.37;86.57;101669.66;4991650;28;20026;-76
2023/04/26 01:57:29;;;;;;;15.30;6.57;;;;;;;-0.42;86.48;101677.06;4998519;28;20042;-76
2023/04/26 01:59:55;;;;;;;16.30;7.00;;;;;;;-0.46;86.65;101674.59;5003129;28;20034;-76
2023/04/26 02:02:21;;;;;;;19.05;6.68;;;;;;;-0.41;86.72;101682.22;4996327;28;20073;-77
2023/04/26 02:04:49;;;;;;;14.27;6.23;;;;;;;-0.40;86.92;101683.09;5001808;28;20037;-76
2023/04/26 02:07:15;;;;;;;19.00;6.57;;;;;;;-0.33;86.85;101681.69;5006547;28;20041;-76
2023/04/26 02:09:40;;;;;;;18.40;6.43;;;;;;;-0.22;86.28;101683.59;4992524;28;20417;-76
2023/04/26 02:12:06;;;;;;;15.05;6.45;;;;;;;-0.16;86.25;101683.19;4994468;28;20031;-76
2023/04/26 02:14:31;;;;;;;13.18;6.15;;;;;;;-0.03;86.25;101685.84;5003724;28;20030;-76
2023/04/26 02:16:57;;;;;;;12.47;6.30;;;;;;;0.03;85.85;101680.09;4993785;28;20034;-77
2023/04/26 02:19:22;;;;;;;15.88;7.32;;;;;;;0.02;85.52;101681.06;5001171;28;20588;-77
2023/04/26 02:21:52;;;;;;;16.17;7.40;;;;;;;0.03;85.34;101679.28;4990921;28;20050;-76
2023/04/26 02:24:18;;;;;;;16.67;6.72;;;;;;;-0.03;85.08;101685.84;4990151;28;20022;-77
2023/04/26 02:26:46;;;;;;;13.43;6.47;;;;;;;-0.14;85.16;101689.25;5009389;28;20075;-77
2023/04/26 02:29:11;;;;;;;13.27;6.10;;;;;;;-0.42;85.47;101680.53;4987240;28;20050;-77
2023/04/26 02:31:37;;;;;;;16.57;5.60;;;;;;;-0.58;85.46;101683.38;4974268;28;20031;-76
2023/04/26 02:34:02;;;;;;;16.00;7.40;;;;;;;-0.73;85.69;101673.84;4977688;28;20057;-77
2023/04/26 02:36:28;;;;;;;10.60;5.77;;;;;;;-0.88;85.73;101673.88;4991279;28;20034;-76
2023/04/26 02:38:56;;;;;;;13.60;5.40;;;;;;;-1.02;86.12;101676.59;5009221;28;20072;-76
2023/04/26 02:41:22;;;;;;;11.68;5.00;;;;;;;-1.11;86.18;101672.75;5010870;28;20025;-76
2023/04/26 02:43:49;;;;;;;19.90;6.40;;;;;;;-1.02;86.56;101680.09;4988857;28;20042;-77
2023/04/26 02:46:17;;;;;;;17.25;6.82;;;;;;;-0.69;86.96;101681.47;4993886;28;20079;-77
2023/04/26 02:48:42;;;;;;;20.65;7.55;;;;;;;-0.58;86.91;101686.03;4989151;28;20517;-77
2023/04/26 02:51:08;;;;;;;19.63;6.73;;;;;;;-0.42;86.84;101688.47;4993433;28;20026;-76
2023/04/26 02:53:33;;;;;;;16.47;6.87;;;;;;;-0.37;86.67;101689.00;4976464;28;20389;-77
2023/04/26 02:55:59;;;;;;;19.73;6.53;;;;;;;-0.34;86.53;101680.00;4974042;28;20034;-76
2023/04/26 02:58:25;;;;;;;19.23;7.22;;;;;;;-0.54;86.63;101684.00;4988780;28;20042;-76
2023/04/26 03:00:50;;;;;;;20.42;7.20;;;;;;;-0.54;86.38;101682.22;5002074;28;20518;-81
2023/04/26 03:03:16;;;;;;;19.75;6.80;;;;;;;-0.54;86.48;101682.22;4988723;28;20034;-78
2023/04/26 03:05:41;;;;;;;14.38;5.68;;;;;;;-0.74;86.65;101674.78;5003331;28;20030;-78
2023/04/26 03:08:07;;;;;;;23.90;7.57;;;;;;;-0.96;86.50;101673.56;5005751;28;20036;-78
2023/04/26 03:10:33;;;;;;;11.50;5.80;;;;;;;-1.11;86.52;101678.91;4979468;28;20049;-78
2023/04/26 03:12:58;;;;;;;20.50;7.97;;;;;;;-1.08;87.06;101677.84;4974107;28;20037;-78
2023/04/26 03:15:23;;;;;;;17.47;7.87;;;;;;;-1.10;87.26;101677.97;4997690;28;20037;-78
2023/04/26 03:17:49;;;;;;;23.20;8.73;;;;;;;-1.01;87.62;101680.94;4973128;28;20513;-78
2023/04/26 03:20:16;;;;;;;21.55;9.13;;;;;;;-0.91;87.83;101679.41;5002006;28;20149;-78
2023/04/26 03:22:41;;;;;;;16.98;7.47;;;;;;;-0.96;87.71;101676.19;5006700;28;20341;-78
2023/04/26 03:25:07;;;;;;;14.90;6.60;;;;;;;-1.12;87.66;101682.50;5021807;28;20030;-78
2023/04/26 03:27:33;;;;;;;22.20;8.32;;;;;;;-1.21;87.54;101677.78;5011877;28;20024;-78
2023/04/26 03:29:59;;;;;;;24.23;9.80;;;;;;;-1.23;87.85;101671.75;5023126;28;20037;-78
2023/04/26 03:32:24;;;;;;;32.53;10.93;;;;;;;-1.16;87.81;101675.72;5019461;28;20389;-78
2023/04/26 03:34:50;;;;;;;24.53;10.00;;;;;;;-1.15;88.15;101672.13;5031213;28;20032;-78
2023/04/26 03:37:15;;;;;;;22.00;9.35;;;;;;;-0.94;88.31;101676.94;5036972;28;20029;-78
2023/04/26 03:39:41;;;;;;;19.97;8.57;;;;;;;-0.80;88.17;101663.66;5015313;28;20029;-78
2023/04/26 03:42:08;;;;;;;29.47;10.40;;;;;;;-0.73;88.02;101661.44;5016388;28;20038;-78
2023/04/26 03:44:33;;;;;;;24.02;9.38;;;;;;;-0.82;87.91;101656.78;5020437;28;20033;-78
2023/04/26 03:46:58;;;;;;;20.83;8.80;;;;;;;-0.78;88.17;101658.25;5003841;28;20025;-78
2023/04/26 03:49:24;;;;;;;26.30;9.73;;;;;;;-0.89;87.67;101647.56;5023106;28;20042;-78
2023/04/26 03:51:49;;;;;;;22.30;9.47;;;;;;;-0.99;87.78;101660.53;5014666;28;20499;-78
2023/04/26 03:54:15;;;;;;;22.40;8.33;;;;;;;-1.10;87.90;101659.47;5017569;28;20029;-78
2023/04/26 03:56:40;;;;;;;23.37;8.83;;;;;;;-1.12;87.53;101658.72;5015457;28;20029;-78
2023/04/26 03:59:06;;;;;;;26.88;9.30;;;;;;;-1.04;87.92;101655.56;5009167;28;20321;-78
2023/04/26 04:01:31;;;;;;;22.30;9.07;;;;;;;-1.02;88.04;101655.44;5015755;28;20030;-78
2023/04/26 04:03:57;;;;;;;21.88;9.25;;;;;;;-1.05;88.24;101653.88;5028443;28;20804;-78
2023/04/26 04:06:25;;;;;;;22.60;8.80;;;;;;;-0.87;88.21;101654.44;4998696;28;20476;-78
2023/04/26 04:08:50;;;;;;;22.15;9.07;;;;;;;-0.73;87.65;101660.63;5023553;28;20056;-78
2023/04/26 04:11:16;;;;;;;24.87;8.87;;;;;;;-0.69;87.66;101659.44;5014952;28;20465;-78
2023/04/26 04:13:41;;;;;;;24.10;10.07;;;;;;;-0.83;87.71;101655.09;5013508;28;20033;-78
2023/04/26 04:16:08;;;;;;;22.73;9.97;;;;;;;-1.00;87.56;101658.84;4996134;28;20087;-78
2023/04/26 04:18:34;;;;;;;22.02;9.07;;;;;;;-1.11;87.60;101657.78;5023800;28;20025;-78
2023/04/26 04:21:00;;;;;;;25.55;9.48;;;;;;;-1.05;87.85;101664.44;5014185;28;20049;-77
2023/04/26 04:23:26;;;;;;;23.95;8.95;;;;;;;-0.88;87.69;101660.66;4981728;28;20037;-78
2023/04/26 04:25:52;;;;;;;20.10;9.95;;;;;;;-0.81;87.89;101664.59;4994451;28;20045;-78
2023/04/26 04:28:17;;;;;;;22.97;9.07;;;;;;;-0.66;88.09;101667.16;4988746;28;20113;-78
2023/04/26 04:30:43;;;;;;;18.00;8.40;;;;;;;-0.60;87.58;101672.06;5169032;22;20057;-78
2023/04/26 04:33:08;;;;;;;17.92;8.93;;;;;;;-0.62;87.40;101658.91;5011684;28;20522;-78
2023/04/26 04:35:36;;;;;;;21.20;8.47;;;;;;;-0.71;87.10;101664.00;5014086;28;20098;-78
2023/04/26 04:38:02;;;;;;;22.55;8.80;;;;;;;-0.62;87.39;101668.66;5006666;28;20508;-78
2023/04/26 04:40:27;;;;;;;20.73;9.30;;;;;;;-0.49;87.63;101674.81;5028889;28;20037;-78
2023/04/26 04:42:53;;;;;;;21.00;8.83;;;;;;;-0.41;87.50;101673.47;5011755;28;20828;-78
2023/04/26 04:45:19;;;;;;;20.50;9.02;;;;;;;-0.34;87.22;101672.06;4985134;28;20367;-78
2023/04/26 04:47:44;;;;;;;22.50;9.10;;;;;;;-0.19;87.10;101678.13;5017065;28;20032;-78
2023/04/26 04:50:09;;;;;;;22.80;10.10;;;;;;;-0.05;86.55;101671.88;5031753;28;20055;-78
2023/04/26 04:52:35;;;;;;;24.13;9.90;;;;;;;-0.09;86.31;101675.69;5015074;28;20545;-79
2023/04/26 04:55:01;;;;;;;18.08;9.18;;;;;;;0.05;86.48;101678.19;5031537;28;20100;-78
2023/04/26 04:57:26;;;;;;;19.30;9.43;;;;;;;0.13;85.79;101667.94;5016228;28;20111;-78
2023/04/26 04:59:52;;;;;;;22.37;9.70;;;;;;;0.31;85.85;101675.53;5012543;28;20040;-78
2023/04/26 05:02:20;;;;;;;20.00;10.52;;;;;;;0.65;86.10;101681.03;4998026;28;20033;-78
2023/04/26 05:04:45;;;;;;;20.48;9.45;;;;;;;1.25;85.78;101682.88;5030143;28;20048;-79
2023/04/26 05:07:14;;;;;;;18.97;8.63;;;;;;;1.51;83.57;101686.22;5032903;28;20025;-79
2023/04/26 05:09:47;;;;;;;21.67;8.20;;;;;;;1.65;81.97;101683.34;5000446;28;20076;-79
2023/04/26 05:12:12;;;;;;;20.05;9.23;;;;;;;1.69;79.80;101680.47;4998146;28;20473;-79
2023/04/26 05:14:39;;;;;;;26.10;9.53;;;;;;;1.83;79.64;101685.56;5032653;28;20109;-79
2023/04/26 05:17:05;;;;;;;19.13;8.60;;;;;;;2.17;79.31;101688.22;5032337;28;20087;-78
2023/04/26 05:19:30;;;;;;;15.93;8.60;;;;;;;2.46;77.11;101687.75;5031863;28;20037;-79
2023/04/26 05:21:56;;;;;;;15.43;8.18;;;;;;;2.45;76.55;101683.38;5009516;28;20033;-79
2023/04/26 05:24:22;;;;;;;17.70;8.48;;;;;;;2.33;76.62;101685.22;5032022;28;20048;-79
2023/04/26 05:26:47;;;;;;;17.70;8.87;;;;;;;1.91;77.26;101691.13;5031894;28;20476;-79
2023/04/26 05:29:12;;;;;;;14.57;8.60;;;;;;;2.07;77.42;101690.75;5031739;28;20032;-79
2023/04/26 05:31:38;;;;;;;21.93;8.57;;;;;;;2.33;76.76;101687.00;5011140;28;20738;-79
2023/04/26 05:34:03;;;;;;;18.57;9.60;;;;;;;2.45;76.17;101696.69;4994787;28;20033;-79
2023/04/26 05:36:28;;;;;;;17.70;8.57;;;;;;;2.46;76.73;101695.72;5011674;28;20650;-79
2023/04/26 05:38:54;;;;;;;16.80;8.40;;;;;;;3.08;75.32;101696.03;5018030;28;20068;-79
2023/04/26 05:41:19;;;;;;;12.98;7.60;;;;;;;3.70;72.26;101700.69;5030235;28;20021;-79
2023/04/26 05:43:46;;;;;;;14.73;7.37;;;;;;;3.74;71.14;101697.63;5030392;28;20043;-78
2023/04/26 05:46:11;;;;;;;18.83;8.70;;;;;;;3.01;73.59;101709.00;5012840;28;20359;-79
2023/04/26 05:48:37;;;;;;;;;;;;;;;3.21;73.04;101716.28;5032453;28;20038;-78
2023/04/26 05:51:03;;;;;;;21.00;8.30;;;;;;;3.38;73.35;101713.06;5027963;28;19921;-78
2023/04/26 05:53:28;;;;;;;19.10;9.20;;;;;;;3.25;73.58;101718.59;5027919;28;20034;-78
2023/04/26 05:55:53;;;;;;;19.53;8.27;;;;;;;3.71;72.78;101723.69;4994790;28;20087;-79
2023/04/26 05:58:19;;;;;;;15.93;8.50;;;;;;;3.97;71.74;101718.78;5012635;28;20519;-78
2023/04/26 06:00:44;;;;;;;19.20;7.93;;;;;;;3.96;70.79;101724.25;5010068;28;20034;-78
2023/04/26 06:03:13;;;;;;;17.27;7.93;;;;;;;3.62;72.16;101719.97;5032451;28;20051;-80
2023/04/26 06:05:58;;;;;;;17.02;7.47;;;;;;;4.46;70.69;101719.00;5042119;28;20033;-76
2023/04/26 06:08:23;;;;;;;16.00;7.72;;;;;;;5.31;66.75;101727.41;5013216;28;20032;-76
2023/04/26 06:10:51;;;;;;;;;;;;;;;6.57;63.53;101721.09;5055989;23;20060;-74
2023/04/26 06:13:17;;;;;;;12.15;7.28;;;;;;;7.63;60.22;101726.78;5071359;28;19927;-75
2023/04/26 06:15:42;;;;;;;;;;;;;;;9.20;55.05;101735.56;5072433;28;20024;-88
2023/04/26 06:18:07;;;;;;;12.63;7.00;;;;;;;9.52;52.48;101728.53;5053902;28;20375;-79
2023/04/26 06:20:32;;;;;;;;;;;;;;;9.48;53.18;101725.34;5023451;28;20305;-80
2023/04/26 06:22:58;;;;;;;14.70;8.10;;;;;;;8.78;54.38;101731.94;5049919;28;19924;-81
2023/04/26 06:25:23;;;;;;;12.35;7.25;;;;;;;10.49;50.74;101729.53;5053204;28;20039;-81
2023/04/26 06:27:49;;;;;;;15.80;7.90;;;;;;;10.00;51.16;101731.34;5069877;28;20047;-80
2023/04/26 06:30:14;;;;;;;11.13;7.10;;;;;;;10.96;49.95;101734.00;5070437;28;20021;-80
2023/04/26 06:32:40;;;;;;;11.98;7.80;;;;;;;11.27;48.90;101741.22;5055551;28;20032;-81
2023/04/26 06:35:06;;;;;;;14.10;8.00;;;;;;;10.66;50.23;101735.69;5043707;28;20025;-82
2023/04/26 06:37:31;;;;;;;13.95;8.23;;;;;;;12.07;47.16;101743.56;5032721;28;20032;-81
2023/04/26 06:39:57;;;;;;;10.38;7.32;;;;;;;12.32;46.14;101746.00;5050036;28;20021;-81
2023/04/26 06:42:22;;;;;;;13.05;7.57;;;;;;;14.09;42.26;101746.56;5015747;28;20114;-81
2023/04/26 06:44:48;;;;;;;13.75;7.25;;;;;;;13.23;44.46;101737.50;5052527;28;20031;-80
2023/04/26 06:47:16;;;;;;;11.57;7.60;;;;;;;14.81;40.92;101743.63;5071344;28;20035;-81
2023/04/26 06:49:41;;;;;;;13.70;8.77;;;;;;;13.17;43.39;101743.69;5063612;28;20078;-82
2023/04/26 06:52:07;;;;;;;13.52;7.57;;;;;;;14.78;41.47;101738.59;5082873;28;20024;-80
2023/04/26 06:54:32;;;;;;;12.30;7.50;;;;;;;16.42;37.64;101743.63;5091240;28;20020;-81
2023/04/26 06:56:58;;;;;;;12.10;7.65;;;;;;;16.66;36.95;101733.09;5070214;28;20025;-81
2023/04/26 06:59:26;;;;;;;10.93;7.43;;;;;;;14.57;40.77;101737.66;5060756;28;20028;-81
2023/04/26 07:01:53;;;;;;;10.52;7.05;;;;;;;15.83;38.92;101729.97;5050896;28;20044;-80
2023/04/26 07:04:19;;;;;;;11.45;7.45;;;;;;;16.15;37.29;101730.13;5067058;28;20515;-82
2023/04/26 07:06:44;;;;;;;12.90;7.53;;;;;;;14.92;39.21;101734.03;5057306;28;20035;-82
2023/04/26 07:09:11;;;;;;;13.48;7.25;;;;;;;14.20;41.31;101737.03;5040858;28;20024;-83
2023/04/26 07:11:36;;;;;;;12.48;7.05;;;;;;;15.13;39.84;101739.31;5070920;28;20057;-81
2023/04/26 07:14:11;;;;;;;11.52;6.13;;;;;;;15.61;38.95;101738.31;5052106;28;20111;-81
2023/04/26 07:16:36;;;;;;;11.50;6.28;;;;;;;15.86;38.95;101735.00;5069646;28;20024;-81
2023/04/26 07:19:05;;;;;;;11.80;5.55;;;;;;;13.91;41.60;101742.47;5067276;28;20035;-81
2023/04/26 07:21:30;;;;;;;10.15;5.78;;;;;;;12.85;43.47;101741.28;5053295;28;20044;-81
2023/04/26 07:23:56;;;;;;;10.13;5.50;;;;;;;12.18;44.78;101735.00;5051284;28;20543;-80
2023/04/26 07:26:25;;;;;;;11.88;6.60;;;;;;;11.34;48.85;101741.34;5049945;28;20106;-80
2023/04/26 07:28:51;;;;;;;11.88;6.30;;;;;;;10.94;48.80;101749.50;5039588;28;20090;-81
2023/04/26 07:31:16;;;;;;;11.05;5.70;;;;;;;11.82;47.22;101743.78;5036304;28;20028;-81
2023/04/26 07:33:42;;;;;;;9.88;5.43;;;;;;;11.45;47.96;101748.97;5073080;28;20058;-79
2023/04/26 07:36:07;;;;;;;10.25;5.20;;;;;;;11.11;47.73;101738.63;5077750;28;20031;-81
2023/04/26 07:38:33;;;;;;;13.55;5.00;;;;;;;11.22;48.19;101739.03;5058821;28;20783;-81
2023/04/26 07:41:00;;;;;;;11.75;5.25;;;;;;;10.81;47.99;101741.16;5078662;28;20040;-81
2023/04/26 07:43:25;;;;;;;6.55;3.65;;;;;;;10.61;47.55;101734.34;5036746;28;20024;-80
2023/04/26 07:45:51;;;;;;;9.32;4.03;;;;;;;10.31;48.50;101739.50;5070183;28;20078;-81
2023/04/26 07:48:16;;;;;;;9.13;3.53;;;;;;;10.57;48.96;101735.72;5082088;28;20092;-80
2023/04/26 07:50:42;;;;;;;5.40;3.20;;;;;;;10.91;47.67;101739.91;5063909;28;20117;-81
2023/04/26 07:53:10;;;;;;;7.00;3.33;;;;;;;11.60;46.36;101738.25;5016780;28;20040;-81
2023/04/26 07:55:38;;;;;;;6.43;3.35;;;;;;;11.78;45.25;101745.19;5051253;28;20029;-81
2023/04/26 07:58:04;;;;;;;8.85;3.10;;;;;;;11.41;45.17;101744.13;5048263;28;20029;-82
2023/04/26 08:00:29;;;;;;;7.32;3.00;;;;;;;11.36;45.50;101739.28;5031132;28;20079;-80
2023/04/26 08:02:55;;;;;;;6.82;2.60;;;;;;;11.01;46.92;101742.38;5066488;28;20046;-79
2023/04/26 08:05:20;;;;;;;8.77;3.30;;;;;;;10.91;48.03;101736.41;5071939;28;20499;-79
2023/04/26 08:07:46;;;;;;;7.07;3.72;;;;;;;10.39;48.25;101745.88;5062752;28;20068;-79
2023/04/26 08:10:11;;;;;;;12.93;4.00;;;;;;;9.87;49.32;101742.59;5032591;28;20064;-79
2023/04/26 08:12:37;;;;;;;6.82;3.15;;;;;;;9.27;51.00;101746.47;5054023;28;20039;-80
2023/04/26 08:15:06;;;;;;;6.00;2.65;;;;;;;9.62;48.88;101747.16;5089138;28;20016;-79
2023/04/26 08:17:31;;;;;;;5.53;2.15;;;;;;;9.40;49.59;101749.50;5038339;28;20494;-79
2023/04/26 08:19:57;;;;;;;4.25;2.25;;;;;;;10.10;47.76;101747.28;5052590;28;20580;-80
2023/04/26 08:22:23;;;;;;;4.93;2.00;;;;;;;10.65;46.33;101742.91;5054304;28;20408;-80
2023/04/26 08:24:49;;;;;;;7.72;2.60;;;;;;;9.60;48.48;101750.03;5074188;28;20020;-80
2023/04/26 08:27:15;;;;;;;4.95;2.72;;;;;;;9.93;48.98;101747.31;5056601;28;20067;-80
2023/04/26 08:29:40;;;;;;;5.40;2.45;;;;;;;10.27;47.70;101748.06;5051760;28;20119;-79
2023/04/26 08:32:06;;;;;;;9.55;2.83;;;;;;;10.59;47.81;101747.16;5035016;28;20039;-79
2023/04/26 08:34:31;;;;;;;5.25;2.90;;;;;;;11.03;46.68;101751.13;5069265;28;20028;-80
2023/04/26 08:36:57;;;;;;;6.88;2.80;;;;;;;12.06;43.74;101752.69;5072908;28;20032;-80
2023/04/26 08:39:25;;;;;;;6.97;2.70;;;;;;;11.29;44.45;101751.81;5054338;28;20086;-80
2023/04/26 08:41:53;;;;;;;6.75;2.90;;;;;;;11.34;45.66;101750.25;5061518;28;20428;-79
2023/04/26 08:44:22;;;;;;;6.05;2.70;;;;;;;11.90;43.79;101759.88;5035786;28;20120;-80
2023/04/26 08:47:03;;;;;;;4.53;2.25;;;;;;;13.60;40.01;101746.41;5045137;28;20048;-80
2023/04/26 08:49:40;;;;;;;4.07;2.42;;;;;;;14.72;38.00;101758.38;5026936;28;20106;-80
2023/04/26 08:52:07;;;;;;;6.45;2.85;;;;;;;14.13;38.16;101760.53;5061470;28;20032;-80
2023/04/26 08:54:33;;;;;;;12.00;3.05;;;;;;;13.63;39.34;101756.00;5070003;28;20401;-80
2023/04/26 08:56:58;;;;;;;12.30;2.90;;;;;;;11.94;42.42;101760.34;5052164;28;20483;-80
2023/04/26 08:59:24;;;;;;;7.63;3.25;;;;;;;10.41;45.66;101763.53;5042668;28;20499;-80
2023/04/26 09:01:49;;;;;;;7.25;2.72;;;;;;;9.65;47.75;101754.91;5049009;28;20029;-80
2023/04/26 09:04:15;;;;;;;5.32;2.45;;;;;;;8.99;49.50;101757.53;5033367;28;20444;-80
2023/04/26 09:06:40;;;;;;;7.70;2.30;;;;;;;8.90;50.49;101759.34;5050540;28;20195;-80
2023/04/26 09:09:06;;;;;;;6.35;2.28;;;;;;;8.60;50.46;101764.25;5034680;28;20017;-79
2023/04/26 09:11:51;;;;;;;3.53;1.80;;;;;;;8.45;50.84;101764.00;5030628;28;20038;-79
2023/04/26 09:14:16;;;;;;;6.07;2.00;;;;;;;8.15;51.37;101753.63;5044686;28;20275;-80
2023/04/26 09:16:42;;;;;;;4.25;2.15;;;;;;;8.13;52.24;101755.63;5036551;28;20044;-80
2023/04/26 09:19:07;;;;;;;5.10;1.92;;;;;;;8.44;49.92;101759.63;5032449;28;20026;-80
2023/04/26 09:21:32;;;;;;;;;;;;;;;8.40;49.99;101753.72;5035133;28;20035;-80
2023/04/26 09:23:58;;;;;;;5.97;1.80;;;;;;;8.39;50.20;101756.59;5054098;28;19935;-81
2023/04/26 09:26:25;;;;;;;3.25;1.60;;;;;;;8.85;48.84;101764.34;5031295;28;20025;-81
2023/04/26 09:28:52;;;;;;;5.63;2.22;;;;;;;8.72;49.67;101759.44;5048485;28;20480;-81
2023/04/26 09:31:37;;;;;;;3.78;1.90;;;;;;;9.11;48.54;101758.88;5016923;28;20384;-81
2023/04/26 09:34:03;;;;;;;6.55;2.20;;;;;;;9.53;46.63;101752.53;5031077;28;20064;-81
2023/04/26 09:36:28;;;;;;;9.07;2.60;;;;;;;9.21;47.67;101754.19;5044384;28;20052;-81
2023/04/26 09:38:53;;;;;;;5.00;1.90;;;;;;;9.60;47.69;101755.41;5033944;28;20040;-81
2023/04/26 09:41:19;;;;;;;3.13;2.13;;;;;;;9.80;47.60;101757.72;5049593;28;20040;-80
2023/04/26 09:43:44;;;;;;;4.88;1.83;;;;;;;10.18;45.50;101751.81;5051451;28;20021;-81
2023/04/26 09:46:13;;;;;;;8.05;2.17;;;;;;;10.56;44.84;101750.19;5050373;28;20029;-79
2023/04/26 09:48:38;;;;;;;5.15;1.98;;;;;;;11.66;43.01;101739.38;5050955;28;20029;-80
2023/04/26 09:51:12;;;;;;;6.53;2.08;;;;;;;12.62;40.14;101748.66;5016214;28;20522;-78
2023/04/26 09:53:40;;;;;;;5.80;2.33;;;;;;;12.71;41.39;101742.13;5048542;28;20494;-78
2023/04/26 09:56:09;;;;;;;3.17;1.80;;;;;;;13.16;39.08;101740.16;5063675;28;20028;-77
2023/04/26 09:58:38;;;;;;;6.20;1.90;;;;;;;13.05;38.34;101743.38;5063509;28;20029;-79
2023/04/26 10:01:05;;;;;;;5.80;1.90;;;;;;;13.09;38.54;101739.22;5051254;28;20029;-79
2023/04/26 10:03:33;;;;;;;2.72;1.70;;;;;;;12.82;38.08;101736.25;5049280;28;20082;-79
2023/04/26 10:05:58;;;;;;;2.28;1.48;;;;;;;13.31;35.60;101736.53;5035347;28;20073;-80
2023/04/26 10:08:24;;;;;;;4.97;1.90;;;;;;;13.78;35.24;101731.56;5027680;28;20494;-80
2023/04/26 10:10:50;;;;;;;6.22;1.63;;;;;;;14.42;35.00;101736.97;5062879;28;20056;-80
2023/04/26 10:13:15;;;;;;;5.45;1.90;;;;;;;15.37;33.42;101730.78;5051391;28;20029;-79
2023/04/26 10:15:41;;;;;;;3.00;1.55;;;;;;;16.93;31.58;101738.41;5037958;28;20029;-80
2023/04/26 10:18:06;;;;;;;3.50;1.60;;;;;;;18.32;29.63;101737.50;5033955;28;20025;-81
2023/04/26 10:20:31;;;;;;;3.00;1.70;;;;;;;18.72;28.62;101738.91;5032038;28;20459;-81
2023/04/26 10:23:01;;;;;;;3.67;1.77;;;;;;;17.70;27.63;101732.84;5031598;28;20037;-81
2023/04/26 10:25:37;;;;;;;5.88;1.65;;;;;;;19.32;27.27;101739.97;5031559;28;20029;-81
2023/04/26 10:28:05;;;;;;;3.00;1.50;;;;;;;18.61;26.70;101732.31;5061273;28;20090;-81
2023/04/26 10:30:31;;;;;;;5.80;2.03;;;;;;;19.49;25.13;101729.19;5044352;28;20027;-81
2023/04/26 10:33:05;;;;;;;3.85;1.50;;;;;;;16.74;29.29;101732.84;5050042;28;20029;-80
2023/04/26 10:35:30;;;;;;;2.80;1.40;;;;;;;14.79;32.16;101729.44;5067259;28;20040;-81
2023/04/26 10:37:58;;;;;;;3.22;1.60;;;;;;;13.47;34.83;101730.91;5053770;28;20016;-81
2023/04/26 10:40:35;;;;;;;5.20;1.80;;;;;;;13.23;34.92;101731.28;5063446;28;20037;-81
2023/04/26 10:43:15;;;;;;;4.78;1.70;;;;;;;12.84;34.78;101727.94;5033298;28;20066;-80
2023/04/26 10:45:42;;;;;;;4.07;1.88;;;;;;;11.71;36.77;101719.94;5063196;28;20032;-80
2023/04/26 10:48:13;;;;;;;4.88;1.70;;;;;;;11.03;38.81;101720.66;5049840;28;20049;-80
2023/04/26 10:51:11;;;;;;;3.33;2.08;;;;;;;10.95;39.82;101715.31;5050472;28;20029;-79
2023/04/26 10:53:45;;;;;;;3.65;1.90;;;;;;;13.02;37.75;101719.41;5051098;28;20021;-79
2023/04/26 10:56:22;;;;;;;5.13;1.63;;;;;;;15.21;33.16;101718.47;5055039;28;20502;-79
2023/04/26 10:58:48;;;;;;;4.68;1.98;;;;;;;16.05;30.98;101721.59;5068280;28;20035;-80
2023/04/26 11:01:15;;;;;;;4.00;1.42;;;;;;;16.01;30.84;101717.63;5050358;28;20028;-80
2023/04/26 11:03:40;;;;;;;4.15;1.80;;;;;;;15.11;33.24;101716.16;5052577;28;20516;-80
2023/04/26 11:06:08;;;;;;;5.88;1.85;;;;;;;13.34;36.26;101711.81;5060157;28;20456;-80
2023/04/26 11:08:35;;;;;;;4.32;1.60;;;;;;;12.43;37.03;101710.41;5058442;28;20029;-80
2023/04/26 11:11:03;;;;;;;4.80;1.90;;;;;;;12.50;37.73;101714.06;5052374;28;20071;-80
2023/04/26 11:13:36;;;;;;;3.35;1.90;;;;;;;11.33;38.02;101715.38;5061735;28;20497;-81
2023/04/26 11:16:03;;;;;;;4.78;1.83;;;;;;;11.27;37.96;101708.88;5066557;28;20032;-79
2023/04/26 11:18:32;;;;;;;4.03;1.70;;;;;;;11.57;37.70;101706.25;5064077;28;20522;-79
2023/04/26 11:20:57;;;;;;;3.72;1.73;;;;;;;11.18;38.28;101716.19;5053888;28;20041;-79